createdAt,value
2019-04-07T00:00:37.415Z,16.50
2019-04-07T00:03:41.299Z,16.10
2019-04-07T00:06:45.340Z,15.67
2019-04-07T00:09:49.291Z,15.47
2019-04-07T00:12:53.134Z,15.47
2019-04-07T00:15:57.444Z,14.43
2019-04-07T00:19:01.557Z,13.90
2019-04-07T00:22:05.507Z,13.77
2019-04-07T00:25:09.419Z,15.10
2019-04-07T00:28:13.326Z,14.80
2019-04-07T00:31:17.187Z,14.77
2019-04-07T00:34:22.107Z,13.47
2019-04-07T00:37:26.401Z,12.60
2019-04-07T00:40:30.590Z,13.73
2019-04-07T00:43:35.165Z,13.17
2019-04-07T00:46:39.741Z,12.97
2019-04-07T00:49:43.609Z,13.47
2019-04-07T00:52:47.991Z,11.23
2019-04-07T00:55:51.883Z,12.07
2019-04-07T00:58:55.800Z,12.50
2019-04-07T01:02:00.281Z,12.60
2019-04-07T01:05:04.996Z,12.37
2019-04-07T01:08:08.807Z,12.23
2019-04-07T01:11:12.666Z,11.77
2019-04-07T01:14:16.985Z,12.03
2019-04-07T01:17:21.535Z,11.97
2019-04-07T01:20:25.971Z,12.80
2019-04-07T01:23:29.923Z,12.03
2019-04-07T01:26:33.926Z,11.83
2019-04-07T01:29:37.815Z,12.07
2019-04-07T01:32:42.109Z,11.70
2019-04-07T01:35:48.673Z,11.40
2019-04-07T01:38:52.068Z,11.40
2019-04-07T01:42:00.537Z,11.67
2019-04-07T01:45:18.471Z,12.00
2019-04-07T01:48:26.893Z,10.70
2019-04-07T01:51:48.796Z,10.67
2019-04-07T01:55:10.479Z,10.47
2019-04-07T01:58:30.754Z,10.67
2019-04-07T02:01:45.142Z,10.33
2019-04-07T02:05:05.621Z,9.30
2019-04-07T02:08:20.094Z,9.57
2019-04-07T02:11:43.994Z,9.93
2019-04-07T02:14:58.384Z,10.20
2019-04-07T02:18:12.379Z,10.70
2019-04-07T02:21:18.369Z,10.97
2019-04-07T02:24:39.938Z,9.93
2019-04-07T02:27:57.258Z,10.97
2019-04-07T02:31:02.751Z,11.63
2019-04-07T02:34:08.129Z,11.40
2019-04-07T02:37:25.052Z,10.97
2019-04-07T02:40:36.074Z,10.17
2019-04-07T02:43:44.573Z,10.10
2019-04-07T02:46:53.424Z,11.07
2019-04-07T02:50:04.721Z,10.50
2019-04-07T02:53:11.069Z,12.53
2019-04-07T02:56:29.315Z,16.13
2019-04-07T02:59:53.462Z,15.50
2019-04-07T03:03:10.886Z,15.20
2019-04-07T03:06:37.605Z,15.00
2019-04-07T03:09:29.980Z,17.47
2019-04-07T03:12:35.471Z,17.73
2019-04-07T03:15:40.974Z,17.03
2019-04-07T03:19:04.475Z,19.17
2019-04-07T03:22:16.377Z,18.80
2019-04-07T03:25:21.784Z,19.13
2019-04-07T03:28:27.302Z,16.87
2019-04-07T03:31:33.047Z,17.67
2019-04-07T03:34:56.295Z,17.33
2019-04-07T03:38:18.975Z,16.23
2019-04-07T03:41:24.516Z,16.50
2019-04-07T03:44:38.724Z,16.03
2019-04-07T03:47:53.084Z,16.33
2019-04-07T03:50:59.988Z,15.57
2019-04-07T03:54:22.773Z,16.63
2019-04-07T03:57:46.363Z,15.70
2019-04-07T04:01:13.774Z,17.60
2019-04-07T04:04:24.713Z,14.43
2019-04-07T04:07:36.517Z,16.47
2019-04-07T04:10:45.564Z,16.60
2019-04-07T04:13:51.080Z,16.60
2019-04-07T04:16:55.029Z,14.20
2019-04-07T04:19:58.935Z,14.17
2019-04-07T04:23:03.827Z,13.77
2019-04-07T04:26:08.314Z,12.87
2019-04-07T04:29:12.330Z,12.90
2019-04-07T04:32:16.679Z,13.93
2019-04-07T04:35:20.536Z,13.57
2019-04-07T04:38:24.406Z,14.33
2019-04-07T04:41:28.234Z,13.23
2019-04-07T04:44:32.095Z,14.37
2019-04-07T04:47:35.916Z,13.00
2019-04-07T04:50:39.921Z,13.87
2019-04-07T04:53:44.270Z,14.00
2019-04-07T04:56:48.297Z,12.27
2019-04-07T04:59:53.942Z,12.20
2019-04-07T05:02:58.161Z,11.33
2019-04-07T05:06:02.388Z,12.00
2019-04-07T05:09:07.932Z,11.47
2019-04-07T05:12:11.761Z,10.50
2019-04-07T05:15:15.227Z,10.47
2019-04-07T05:18:19.076Z,10.30
2019-04-07T05:21:22.999Z,10.93
2019-04-07T05:24:26.840Z,10.93
2019-04-07T05:27:30.738Z,10.70
2019-04-07T05:30:34.699Z,10.47
2019-04-07T05:33:38.543Z,9.53
2019-04-07T05:36:42.367Z,10.13
2019-04-07T05:39:46.338Z,9.90
2019-04-07T05:42:50.832Z,10.23
2019-04-07T05:45:55.463Z,9.67
2019-04-07T05:49:00.455Z,9.33
2019-04-07T05:52:05.677Z,9.93
2019-04-07T05:55:09.824Z,9.23
2019-04-07T05:58:15.443Z,9.80
2019-04-07T06:01:22.332Z,9.87
2019-04-07T06:04:24.909Z,10.53
2019-04-07T06:07:31.248Z,10.40
2019-04-07T06:10:34.888Z,10.20
2019-04-07T06:13:39.086Z,10.07
2019-04-07T06:16:43.532Z,18.57
2019-04-07T06:19:47.411Z,21.50
2019-04-07T06:22:53.623Z,15.93
2019-04-07T06:25:58.962Z,20.17
2019-04-07T06:29:02.645Z,19.77
2019-04-07T06:32:09.753Z,21.63
2019-04-07T06:35:13.917Z,23.70
2019-04-07T06:38:17.808Z,24.87
2019-04-07T06:41:21.782Z,28.53
2019-04-07T06:44:26.010Z,30.10
2019-04-07T06:47:32.870Z,29.50
2019-04-07T06:50:49.911Z,28.60
2019-04-07T06:53:54.284Z,33.20
2019-04-07T06:57:18.512Z,28.33
2019-04-07T07:00:30.041Z,30.40
2019-04-07T07:03:52.985Z,27.97
2019-04-07T07:07:16.778Z,25.23
2019-04-07T07:10:29.006Z,28.77
2019-04-07T07:13:34.787Z,28.87
2019-04-07T07:16:42.681Z,29.30
2019-04-07T07:20:01.329Z,27.40
2019-04-07T07:23:07.613Z,26.77
2019-04-07T07:26:11.632Z,27.67
2019-04-07T07:29:16.446Z,28.13
2019-04-07T07:32:20.625Z,26.50
2019-04-07T07:35:24.541Z,24.27
2019-04-07T07:38:31.074Z,23.90
2019-04-07T07:41:34.476Z,24.57
2019-04-07T07:44:39.674Z,25.47
2019-04-07T07:47:43.808Z,24.53
2019-04-07T07:50:47.849Z,22.40
2019-04-07T07:53:52.640Z,23.27
2019-04-07T07:56:56.884Z,23.77
2019-04-07T08:00:04.546Z,23.53
2019-04-07T08:03:06.874Z,24.57
2019-04-07T08:06:10.851Z,25.37
2019-04-07T08:09:16.453Z,23.37
2019-04-07T08:12:20.629Z,22.63
2019-04-07T08:15:29.666Z,24.57
2019-04-07T08:18:29.641Z,25.97
2019-04-07T08:21:33.752Z,25.13
2019-04-07T08:24:37.642Z,24.43
2019-04-07T08:27:41.969Z,24.60
2019-04-07T08:30:47.540Z,24.37
2019-04-07T08:33:52.683Z,24.47
2019-04-07T08:36:57.384Z,24.03
2019-04-07T08:40:04.403Z,24.47
2019-04-07T08:43:07.206Z,24.70
2019-04-07T08:46:11.023Z,24.10
2019-04-07T08:49:14.927Z,23.90
2019-04-07T08:52:19.468Z,23.27
2019-04-07T08:55:23.639Z,25.77
2019-04-07T08:58:29.852Z,24.17
2019-04-07T09:01:33.144Z,26.53
2019-04-07T09:04:36.796Z,25.70
2019-04-07T09:07:40.276Z,26.30
2019-04-07T09:10:51.113Z,24.93
2019-04-07T09:13:55.841Z,25.77
2019-04-07T09:17:06.851Z,24.77
2019-04-07T09:20:26.898Z,25.97
2019-04-07T09:23:35.441Z,25.13
2019-04-07T09:26:42.832Z,26.00
2019-04-07T09:29:58.254Z,25.57
2019-04-07T09:33:21.551Z,25.27
2019-04-07T09:36:32.367Z,23.73
2019-04-07T09:39:59.172Z,22.77
2019-04-07T09:43:17.989Z,24.27
2019-04-07T09:46:26.416Z,23.33
2019-04-07T09:49:49.602Z,24.00
2019-04-07T09:53:00.848Z,20.73
2019-04-07T09:56:21.658Z,20.17
2019-04-07T09:59:32.816Z,19.83
2019-04-07T10:02:56.105Z,18.60
2019-04-07T10:06:10.710Z,18.03
2019-04-07T10:09:32.452Z,16.67
2019-04-07T10:12:37.557Z,16.13
2019-04-07T10:15:43.177Z,17.50
2019-04-07T10:18:55.089Z,15.93
2019-04-07T10:22:03.575Z,13.57
2019-04-07T10:25:11.988Z,14.47
2019-04-07T10:28:23.398Z,16.83
2019-04-07T10:31:28.487Z,18.13
2019-04-07T10:34:39.137Z,18.20
2019-04-07T10:37:56.865Z,15.57
2019-04-07T10:41:10.778Z,17.90
2019-04-07T10:44:32.401Z,20.00
2019-04-07T10:47:43.666Z,19.80
2019-04-07T10:51:05.618Z,19.47
2019-04-07T10:54:16.242Z,18.53
2019-04-07T10:57:36.726Z,20.07
2019-04-07T11:00:58.651Z,21.10
2019-04-07T11:04:12.789Z,23.43
2019-04-07T11:07:32.830Z,19.77
2019-04-07T11:10:50.715Z,22.07
2019-04-07T11:13:55.908Z,22.00
2019-04-07T11:17:06.617Z,22.17
2019-04-07T11:20:20.601Z,21.43
2019-04-07T11:23:41.861Z,20.33
2019-04-07T11:26:59.414Z,20.20
2019-04-07T11:30:08.068Z,18.83
2019-04-07T11:33:13.426Z,18.83
2019-04-07T11:36:27.234Z,19.30
2019-04-07T11:39:35.203Z,18.97
2019-04-07T11:42:40.446Z,19.97
2019-04-07T11:46:03.574Z,18.60
2019-04-07T11:49:13.091Z,21.30
2019-04-07T11:52:20.634Z,18.83
2019-04-07T11:55:30.080Z,20.27
2019-04-07T11:58:50.403Z,19.60
2019-04-07T12:01:58.621Z,19.27
2019-04-07T12:05:04.364Z,24.70
2019-04-07T12:08:16.126Z,29.33
2019-04-07T12:11:26.816Z,29.43
2019-04-07T12:14:32.013Z,28.83
2019-04-07T12:17:42.033Z,29.73
2019-04-07T12:20:50.747Z,27.50
2019-04-07T12:24:09.507Z,25.80
2019-04-07T12:27:15.151Z,26.20
2019-04-07T12:30:23.366Z,23.13
2019-04-07T12:33:31.204Z,24.67
2019-04-07T12:36:39.777Z,24.53
2019-04-07T12:39:52.003Z,22.97
2019-04-07T12:43:03.531Z,21.77
2019-04-07T12:46:09.007Z,22.57
2019-04-07T12:49:19.724Z,23.03
2019-04-07T12:52:28.049Z,22.23
2019-04-07T12:55:45.555Z,23.10
2019-04-07T12:58:53.354Z,23.10
2019-04-07T13:02:05.587Z,23.17
2019-04-07T13:05:24.289Z,22.97
2019-04-07T13:08:32.303Z,20.57
2019-04-07T13:11:45.318Z,21.77
2019-04-07T13:14:47.543Z,22.07
2019-04-07T13:18:09.667Z,22.40
2019-04-07T13:21:14.537Z,21.30
2019-04-07T13:24:35.615Z,34.67
2019-04-07T13:27:41.534Z,20.10
2019-04-07T13:30:53.028Z,20.63
2019-04-07T13:34:01.217Z,20.03
2019-04-07T13:37:08.047Z,24.33
2019-04-07T13:40:14.301Z,19.63
2019-04-07T13:43:36.310Z,19.97
2019-04-07T13:46:51.051Z,20.23
2019-04-07T13:50:02.101Z,22.23
2019-04-07T13:53:25.024Z,22.00
2019-04-07T13:56:48.128Z,22.33
2019-04-07T13:59:58.179Z,21.03
2019-04-07T14:03:04.772Z,21.83
2019-04-07T14:06:16.412Z,21.50
2019-04-07T14:09:24.728Z,20.57
2019-04-07T14:12:33.728Z,20.37
2019-04-07T14:15:46.212Z,19.97
2019-04-07T14:18:54.572Z,19.37
2019-04-07T14:22:00.017Z,19.77
2019-04-07T14:25:24.617Z,17.67
2019-04-07T14:28:39.008Z,16.83
2019-04-07T14:31:47.976Z,17.43
2019-04-07T14:34:59.238Z,16.63
2019-04-07T14:38:13.600Z,17.27
2019-04-07T14:41:19.497Z,16.90
2019-04-07T14:44:24.714Z,16.83
2019-04-07T14:47:38.483Z,17.87
2019-04-07T14:50:43.576Z,19.30
2019-04-07T14:54:05.023Z,18.87
2019-04-07T14:57:12.838Z,19.07
2019-04-07T15:00:34.784Z,18.80
2019-04-07T15:03:40.703Z,19.43
2019-04-07T15:06:45.987Z,18.73
2019-04-07T15:09:54.557Z,18.37
2019-04-07T15:12:59.994Z,17.00
2019-04-07T15:16:03.583Z,16.93
2019-04-07T15:19:07.066Z,16.40
2019-04-07T15:22:10.602Z,16.40
2019-04-07T15:25:14.196Z,18.47
2019-04-07T15:49:34.364Z,17.03
2019-04-07T15:52:42.153Z,16.17
2019-04-07T15:55:50.973Z,14.93
2019-04-07T15:58:49.535Z,14.77
2019-04-07T16:01:55.400Z,13.57
2019-04-07T16:05:02.399Z,14.97
2019-04-07T16:08:04.246Z,13.13
2019-04-07T16:11:08.042Z,14.90
2019-04-07T16:14:13.595Z,14.37
2019-04-07T16:17:16.958Z,14.93
2019-04-07T16:20:24.767Z,14.80
2019-04-07T16:23:26.216Z,13.07
2019-04-07T16:26:31.113Z,13.20
2019-04-07T16:29:35.108Z,14.23
2019-04-07T16:32:39.163Z,13.60
2019-04-07T16:35:44.014Z,12.90
2019-04-07T16:38:47.948Z,14.27
2019-04-07T16:41:51.473Z,13.83
2019-04-07T16:44:55.106Z,14.27
2019-04-07T16:47:58.838Z,14.13
2019-04-07T16:51:03.373Z,14.73
2019-04-07T16:54:08.672Z,14.80
2019-04-07T16:57:12.949Z,15.07
2019-04-07T17:00:16.715Z,14.97
2019-04-07T17:03:20.485Z,14.63
2019-04-07T17:06:25.089Z,14.70
2019-04-07T17:09:29.361Z,15.27
2019-04-07T17:12:34.020Z,14.63
2019-04-07T17:15:40.262Z,14.70
2019-04-07T17:18:43.270Z,15.73
2019-04-07T17:21:47.038Z,15.37
2019-04-07T17:24:51.891Z,17.37
2019-04-07T17:27:58.655Z,16.97
2019-04-07T17:31:01.401Z,18.00
2019-04-07T17:34:09.529Z,18.10
2019-04-07T17:37:10.741Z,18.40
2019-04-07T17:40:16.027Z,20.77
2019-04-07T17:43:44.729Z,20.33
2019-04-07T17:46:58.686Z,21.10
2019-04-07T17:50:12.731Z,20.10
2019-04-07T17:53:29.773Z,21.00
2019-04-07T17:56:38.176Z,23.03
2019-04-07T17:59:46.623Z,19.87
2019-04-07T18:02:57.188Z,22.20
2019-04-07T18:06:15.726Z,30.43
2019-04-07T18:09:31.558Z,30.97
2019-04-07T18:12:47.863Z,28.93
2019-04-07T18:16:06.708Z,29.97
2019-04-07T18:19:28.860Z,26.07
2019-04-07T18:22:51.703Z,24.43
2019-04-07T18:25:55.658Z,31.90
2019-04-07T18:29:07.002Z,56.63
2019-04-07T18:32:27.460Z,64.37
2019-04-07T18:35:33.133Z,62.10
2019-04-07T18:38:42.700Z,51.93
2019-04-07T18:41:51.637Z,70.87
2019-04-07T18:45:13.792Z,76.67
2019-04-07T18:48:36.046Z,102.13
2019-04-07T18:51:56.925Z,54.50
2019-04-07T18:55:06.705Z,60.40
2019-04-07T18:58:29.815Z,56.93
2019-04-07T19:01:38.913Z,49.67
2019-04-07T19:04:47.786Z,48.20
2019-04-07T19:07:53.154Z,47.87
2019-04-07T19:11:14.808Z,43.93
2019-04-07T19:14:44.559Z,51.13
2019-04-07T19:17:48.184Z,50.30
2019-04-07T19:20:59.253Z,45.73
2019-04-07T19:24:09.213Z,50.43
2019-04-07T19:27:31.283Z,47.03
2019-04-07T19:30:45.363Z,73.87
2019-04-07T19:34:06.417Z,72.40
2019-04-07T19:37:15.326Z,63.33
2019-04-07T19:40:20.986Z,52.67
2019-04-07T19:43:39.900Z,46.30
2019-04-07T19:46:44.839Z,44.33
2019-04-07T19:50:02.800Z,46.27
2019-04-07T19:53:16.923Z,58.67
2019-04-07T19:56:22.999Z,62.23
2019-04-07T19:59:39.006Z,56.47
2019-04-07T20:02:41.235Z,49.83
2019-04-07T20:06:02.859Z,81.63
2019-04-07T20:09:17.646Z,75.37
2019-04-07T20:12:22.740Z,64.13
2019-04-07T20:15:29.734Z,54.20
2019-04-07T20:18:49.660Z,45.10
2019-04-07T20:21:56.511Z,42.07
2019-04-07T20:25:17.149Z,37.57
2019-04-07T20:28:20.479Z,47.93
2019-04-07T20:31:41.736Z,56.80
2019-04-07T20:34:55.742Z,58.23
2019-04-07T20:38:03.055Z,49.17
2019-04-07T20:41:23.898Z,50.03
2019-04-07T20:44:33.994Z,56.93
2019-04-07T20:47:41.364Z,57.53
2019-04-07T20:50:47.298Z,53.63
2019-04-07T20:54:02.135Z,52.33
2019-04-07T20:57:05.434Z,51.47
2019-04-07T21:00:12.282Z,49.77
2019-04-07T21:03:33.948Z,49.83
2019-04-07T21:06:47.948Z,48.47
2019-04-07T21:10:05.226Z,49.33
2019-04-07T21:13:08.752Z,53.53
2019-04-07T21:16:25.943Z,54.00
2019-04-07T21:19:35.495Z,55.90
2019-04-07T21:22:43.246Z,52.83
2019-04-07T21:25:54.087Z,56.57
2019-04-07T21:29:00.088Z,57.70
2019-04-07T21:32:15.505Z,62.23
2019-04-07T21:35:21.308Z,60.53
2019-04-07T21:38:39.072Z,57.43
2019-04-07T21:41:59.418Z,56.07
2019-04-07T21:45:06.994Z,55.77
2019-04-07T21:48:13.910Z,57.60
2019-04-07T21:51:19.461Z,64.77
2019-04-07T21:54:24.698Z,68.10
2019-04-07T21:57:29.817Z,72.37
2019-04-07T22:00:43.860Z,72.47
2019-04-07T22:03:54.709Z,69.80
2019-04-07T22:06:59.783Z,67.80
2019-04-07T22:10:07.329Z,71.40
2019-04-07T22:13:12.124Z,62.33
2019-04-07T22:16:16.375Z,64.30
2019-04-07T22:19:20.246Z,68.30
2019-04-07T22:22:25.533Z,60.47
2019-04-07T22:25:30.532Z,68.90
2019-04-07T22:28:34.087Z,59.33
2019-04-07T22:31:46.114Z,58.10
2019-04-07T22:34:50.381Z,58.77
2019-04-07T22:37:54.738Z,66.50
2019-04-07T22:40:58.536Z,66.47
2019-04-07T22:44:02.063Z,58.27
2019-04-07T22:47:05.762Z,66.10
2019-04-07T22:50:09.536Z,62.30
2019-04-07T22:53:13.134Z,59.27
2019-04-07T22:56:16.631Z,55.77
2019-04-07T22:59:20.146Z,53.80
2019-04-07T23:02:24.170Z,52.80
2019-04-07T23:05:27.763Z,49.23
2019-04-07T23:08:31.256Z,57.77
2019-04-07T23:11:35.509Z,50.80
2019-04-07T23:14:40.046Z,51.87
2019-04-07T23:17:43.709Z,51.27
2019-04-07T23:20:47.929Z,57.63
2019-04-07T23:23:51.651Z,58.03
2019-04-07T23:26:55.177Z,60.37
2019-04-07T23:29:59.011Z,76.47
2019-04-07T23:33:04.185Z,83.43
2019-04-07T23:36:07.805Z,62.13
2019-04-07T23:39:11.295Z,52.10
2019-04-07T23:42:15.538Z,49.87
2019-04-07T23:45:19.751Z,49.13
2019-04-07T23:48:24.252Z,51.73
2019-04-07T23:51:28.720Z,50.50
2019-04-07T23:54:33.101Z,50.97
2019-04-07T23:57:36.657Z,54.40
